createdAt,value
2017-08-05T00:00:24.151Z,100466.16
2017-08-05T00:02:55.762Z,100467.11
2017-08-05T00:05:29.424Z,100470.23
2017-08-05T00:08:04.691Z,100471.52
2017-08-05T00:10:36.225Z,100466.73
2017-08-05T00:13:07.541Z,100473.89
2017-08-05T00:15:38.613Z,100473.33
2017-08-05T00:18:09.713Z,100482.98
2017-08-05T00:20:41.036Z,100474.97
2017-08-05T00:23:12.085Z,100476.73
2017-08-05T00:25:43.167Z,100474.92
2017-08-05T00:28:14.493Z,100469.05
2017-08-05T00:30:45.533Z,100463.93
2017-08-05T00:33:16.671Z,100469.66
2017-08-05T00:35:47.994Z,100471.91
2017-08-05T00:38:19.315Z,100467.37
2017-08-05T00:40:50.653Z,100459.15
2017-08-05T00:43:22.402Z,100466.25
2017-08-05T00:45:54.997Z,100465.08
2017-08-05T00:48:26.081Z,100463.69
2017-08-05T00:50:57.770Z,100464.81
2017-08-05T00:53:29.142Z,100465.09
2017-08-05T00:56:00.411Z,100462.26
2017-08-05T00:58:31.835Z,100461.34
2017-08-05T01:01:04.055Z,100459.95
2017-08-05T01:03:35.139Z,100458.58
2017-08-05T01:06:09.237Z,100460.08
2017-08-05T01:08:40.274Z,100458.09
2017-08-05T01:11:12.777Z,100460.45
2017-08-05T01:13:43.904Z,100456.72
2017-08-05T01:16:14.990Z,100458.31
2017-08-05T01:18:46.047Z,100453.14
2017-08-05T01:21:17.114Z,100448.16
2017-08-05T01:26:25.683Z,100452.45
2017-08-05T01:28:56.718Z,100453.61
2017-08-05T01:31:28.051Z,100456.34
2017-08-05T01:33:59.084Z,100458.02
2017-08-05T01:36:30.153Z,100456.35
2017-08-05T01:39:01.600Z,100448.77
2017-08-05T01:41:32.673Z,100457.75
2017-08-05T01:44:04.246Z,100449.30
2017-08-05T01:46:35.709Z,100443.11
2017-08-05T01:49:07.043Z,100445.52
2017-08-05T01:51:41.481Z,100443.60
2017-08-05T01:54:15.417Z,100441.59
2017-08-05T01:56:46.526Z,100446.37
2017-08-05T01:59:18.636Z,100444.98
2017-08-05T02:01:49.824Z,100449.74
2017-08-05T02:04:21.755Z,100447.86
2017-08-05T02:06:53.173Z,100440.98
2017-08-05T02:09:25.854Z,100438.25
2017-08-05T02:11:57.528Z,100441.71
2017-08-05T02:14:28.570Z,100432.27
2017-08-05T02:16:59.960Z,100438.46
2017-08-05T02:19:31.032Z,100427.03
2017-08-05T02:22:02.627Z,100434.94
2017-08-05T02:24:33.676Z,100433.55
2017-08-05T02:27:04.769Z,100427.45
2017-08-05T02:29:36.074Z,100426.66
2017-08-05T02:32:07.120Z,100430.67
2017-08-05T02:34:38.185Z,100430.28
2017-08-05T02:37:09.681Z,100427.24
2017-08-05T02:39:44.815Z,100426.34
2017-08-05T02:42:15.906Z,100420.94
2017-08-05T02:47:42.706Z,100414.59
2017-08-05T02:50:13.958Z,100407.59
2017-08-05T02:52:45.204Z,100411.98
2017-08-05T02:55:21.562Z,100413.41
2017-08-05T02:57:57.222Z,100415.66
2017-08-05T03:00:30.366Z,100414.59
2017-08-05T03:03:03.385Z,100419.35
2017-08-05T03:05:38.403Z,100413.80
2017-08-05T03:08:10.325Z,100408.35
2017-08-05T03:10:41.412Z,100405.84
2017-08-05T03:13:12.506Z,100402.63
2017-08-05T03:15:43.572Z,100399.25
2017-08-05T03:18:14.825Z,100397.23
2017-08-05T03:20:46.532Z,100390.25
2017-08-05T03:23:17.649Z,100387.73
2017-08-05T03:25:48.683Z,100390.89
2017-08-05T03:28:20.048Z,100391.95
2017-08-05T03:30:51.082Z,100391.89
2017-08-05T03:33:22.152Z,100395.26
2017-08-05T03:35:53.214Z,100395.89
2017-08-05T03:38:24.279Z,100394.19
2017-08-05T03:40:55.349Z,100398.41
2017-08-05T03:43:26.426Z,100400.53
2017-08-05T03:45:57.770Z,100399.20
2017-08-05T03:48:39.552Z,100401.69
2017-08-05T03:51:11.743Z,100392.07
2017-08-05T03:53:42.988Z,100393.10
2017-08-05T03:56:14.156Z,100392.70
2017-08-05T03:58:45.532Z,100395.86
2017-08-05T04:01:16.912Z,100389.83
2017-08-05T04:03:48.135Z,100390.04
2017-08-05T04:06:19.520Z,100391.49
2017-08-05T04:08:50.607Z,100385.09
2017-08-05T04:11:21.688Z,100380.55
2017-08-05T04:13:53.174Z,100377.52
2017-08-05T04:16:25.354Z,100374.31
2017-08-05T04:18:57.020Z,100376.88
2017-08-05T04:21:29.327Z,100369.36
2017-08-05T04:24:00.396Z,100372.36
2017-08-05T04:26:33.604Z,100371.09
2017-08-05T04:29:05.775Z,100369.48
2017-08-05T04:31:36.885Z,100368.41
2017-08-05T04:34:08.480Z,100369.81
2017-08-05T04:36:39.514Z,100376.96
2017-08-05T04:39:10.600Z,100381.38
2017-08-05T04:41:41.919Z,100375.46
2017-08-05T04:44:12.961Z,100379.52
2017-08-05T04:46:50.020Z,100364.02
2017-08-05T04:49:30.557Z,100362.73
2017-08-05T04:52:07.995Z,100357.32
2017-08-05T04:54:39.392Z,100354.75
2017-08-05T04:57:10.612Z,100353.16
2017-08-05T04:59:41.891Z,100352.52
2017-08-05T05:02:13.356Z,100354.83
2017-08-05T05:04:44.493Z,100351.22
2017-08-05T05:07:15.727Z,100345.27
2017-08-05T05:09:46.879Z,100339.34
2017-08-05T05:12:19.553Z,100349.69
2017-08-05T05:14:50.645Z,100349.74
2017-08-05T05:17:21.795Z,100354.58
2017-08-05T05:19:53.189Z,100356.41
2017-08-05T05:22:24.372Z,100341.87
2017-08-05T05:24:55.841Z,100343.16
2017-08-05T05:27:27.190Z,100339.37
2017-08-05T05:29:58.217Z,100337.36
2017-08-05T05:32:29.560Z,100337.05
2017-08-05T05:35:00.628Z,100336.54
2017-08-05T05:37:31.673Z,100345.41
2017-08-05T05:40:04.925Z,100347.98
2017-08-05T05:42:36.062Z,100350.20
2017-08-05T05:45:07.130Z,100362.89
2017-08-05T05:47:38.510Z,100362.90
2017-08-05T05:50:12.376Z,100358.23
2017-08-05T05:52:43.526Z,100359.89
2017-08-05T05:55:14.879Z,100359.34
2017-08-05T05:57:45.961Z,100354.88
2017-08-05T06:00:17.971Z,100355.10
2017-08-05T06:02:49.317Z,100359.80
2017-08-05T06:05:21.199Z,100358.66
2017-08-05T06:07:52.394Z,100359.81
2017-08-05T06:10:23.722Z,100348.02
2017-08-05T06:12:54.818Z,100349.30
2017-08-05T06:15:26.123Z,100339.55
2017-08-05T06:17:57.507Z,100333.05
2017-08-05T06:20:28.584Z,100330.75
2017-08-05T06:22:59.688Z,100334.39
2017-08-05T06:25:31.020Z,100331.02
2017-08-05T06:28:02.780Z,100335.04
2017-08-05T06:30:33.841Z,100330.13
2017-08-05T06:33:04.985Z,100329.45
2017-08-05T06:35:36.368Z,100329.08
2017-08-05T06:38:08.732Z,100326.31
2017-08-05T06:40:39.805Z,100328.85
2017-08-05T06:43:11.175Z,100326.95
2017-08-05T06:45:42.212Z,100321.61
2017-08-05T06:48:14.359Z,100324.59
2017-08-05T06:50:46.116Z,100319.48
2017-08-05T06:53:17.187Z,100324.98
2017-08-05T06:55:49.185Z,100346.83
2017-08-05T06:58:24.537Z,100337.44
2017-08-05T07:00:56.166Z,100328.05
2017-08-05T07:03:29.105Z,100335.39
2017-08-05T07:06:03.140Z,100330.33
2017-08-05T07:08:36.265Z,100330.34
2017-08-05T07:11:12.171Z,100333.80
2017-08-05T07:13:45.022Z,100331.64
2017-08-05T07:16:19.265Z,100319.44
2017-08-05T07:18:52.041Z,100324.06
2017-08-05T07:21:23.400Z,100320.08
2017-08-05T07:23:54.737Z,100316.52
2017-08-05T07:26:26.947Z,100317.20
2017-08-05T07:28:59.181Z,100313.56
2017-08-05T07:31:30.269Z,100307.99
2017-08-05T07:34:22.390Z,100304.35
2017-08-05T07:39:37.796Z,100310.14
2017-08-05T07:42:12.340Z,100311.59
2017-08-05T07:44:43.725Z,100315.22
2017-08-05T07:47:15.108Z,100319.00
2017-08-05T07:49:48.008Z,100308.25
2017-08-05T07:52:21.698Z,100309.17
2017-08-05T07:54:54.636Z,100319.05
2017-08-05T07:57:29.575Z,100314.05
2017-08-05T08:00:05.189Z,100320.17
2017-08-05T08:02:38.110Z,100316.55
2017-08-05T08:05:11.540Z,100310.50
2017-08-05T08:07:42.631Z,100306.20
2017-08-05T08:10:16.789Z,100304.44
2017-08-05T08:12:47.827Z,100307.80
2017-08-05T08:15:19.935Z,100298.16
2017-08-05T08:17:52.945Z,100296.05
2017-08-05T08:20:26.453Z,100300.93
2017-08-05T08:22:57.631Z,100307.25
2017-08-05T08:25:29.078Z,100298.69
2017-08-05T08:28:00.230Z,100298.50
2017-08-05T08:30:31.249Z,100290.86
2017-08-05T08:33:03.671Z,100296.16
2017-08-05T08:35:34.837Z,100286.41
2017-08-05T08:38:07.200Z,100276.95
2017-08-05T08:40:38.270Z,100284.53
2017-08-05T08:43:09.542Z,100267.77
2017-08-05T08:45:40.831Z,100264.42
2017-08-05T08:48:11.866Z,100258.65
2017-08-05T08:50:44.596Z,100258.77
2017-08-05T08:53:16.223Z,100265.28
2017-08-05T08:55:47.383Z,100261.36
2017-08-05T08:58:18.702Z,100249.40
2017-08-05T09:00:49.723Z,100256.41
2017-08-05T09:03:20.767Z,100264.50
2017-08-05T09:05:52.116Z,100257.75
2017-08-05T09:08:23.202Z,100261.37
2017-08-05T09:10:56.220Z,100266.36
2017-08-05T09:13:27.610Z,100262.47
2017-08-05T09:15:58.660Z,100260.79
2017-08-05T09:18:31.861Z,100257.28
2017-08-05T09:21:03.796Z,100248.31
2017-08-05T09:23:34.858Z,100247.93
2017-08-05T09:26:06.208Z,100249.80
2017-08-05T09:28:37.903Z,100256.76
2017-08-05T09:31:10.424Z,100249.81
2017-08-05T09:33:42.225Z,100246.90
2017-08-05T09:36:13.268Z,100238.11
2017-08-05T09:38:45.006Z,100235.66
2017-08-05T09:41:16.460Z,100244.79
2017-08-05T09:43:47.784Z,100256.83
2017-08-05T09:46:20.534Z,100254.27
2017-08-05T09:48:53.404Z,100266.05
2017-08-05T09:51:24.444Z,100268.58
2017-08-05T09:53:56.177Z,100270.47
2017-08-05T09:56:28.551Z,100270.92
2017-08-05T09:59:07.314Z,100254.95
2017-08-05T10:01:44.252Z,100250.39
2017-08-05T10:04:23.989Z,100261.74
2017-08-05T10:07:00.272Z,100243.33
2017-08-05T10:09:35.426Z,100249.25
2017-08-05T10:12:13.955Z,100243.30
2017-08-05T10:14:46.361Z,100242.90
2017-08-05T10:17:18.399Z,100244.23
2017-08-05T10:19:49.467Z,100245.17
2017-08-05T10:22:21.988Z,100244.28
2017-08-05T10:24:53.988Z,100250.27
2017-08-05T10:27:26.841Z,100253.75
2017-08-05T10:29:59.747Z,100243.20
2017-08-05T10:32:31.397Z,100247.04
2017-08-05T10:35:04.377Z,100248.17
2017-08-05T10:37:35.455Z,100256.41
2017-08-05T10:40:07.289Z,100247.77
2017-08-05T10:42:38.701Z,100251.31
2017-08-05T10:45:09.992Z,100252.97
2017-08-05T10:47:41.056Z,100256.70
2017-08-05T10:50:17.236Z,100248.94
2017-08-05T10:52:48.639Z,100248.33
2017-08-05T10:55:32.214Z,100240.94
2017-08-05T10:58:07.391Z,100247.50
2017-08-05T11:00:41.517Z,100253.49
2017-08-05T11:03:17.800Z,100253.41
2017-08-05T11:05:50.510Z,100249.75
2017-08-05T11:08:23.651Z,100251.53
2017-08-05T11:11:05.818Z,100244.36
2017-08-05T11:13:38.992Z,100245.85
2017-08-05T11:16:12.977Z,100246.33
2017-08-05T11:18:44.255Z,100244.65
2017-08-05T11:21:19.017Z,100257.67
2017-08-05T11:23:50.719Z,100265.85
2017-08-05T11:26:22.785Z,100265.55
2017-08-05T11:28:57.187Z,100267.16
2017-08-05T11:31:30.530Z,100269.20
2017-08-05T11:34:07.084Z,100288.55
2017-08-05T11:36:40.941Z,100298.59
2017-08-05T11:39:17.905Z,100290.72
2017-08-05T11:41:52.866Z,100304.19
2017-08-05T11:44:26.500Z,100316.81
2017-08-05T11:47:00.268Z,100314.18
2017-08-05T11:49:33.398Z,100317.11
2017-08-05T11:52:08.427Z,100321.56
2017-08-05T11:54:44.232Z,100325.50
2017-08-05T11:57:18.079Z,100328.33
2017-08-05T11:59:50.075Z,100335.59
2017-08-05T12:02:23.574Z,100336.94
2017-08-05T12:04:56.229Z,100328.78
2017-08-05T12:07:30.884Z,100336.70
2017-08-05T12:10:05.235Z,100339.30
2017-08-05T12:12:42.054Z,100342.72
2017-08-05T12:15:18.888Z,100329.43
2017-08-05T12:17:52.176Z,100339.52
2017-08-05T12:20:29.412Z,100342.37
2017-08-05T12:23:07.509Z,100330.75
2017-08-05T12:25:42.730Z,100323.33
2017-08-05T12:28:17.781Z,100318.59
2017-08-05T12:30:49.551Z,100318.91
2017-08-05T12:33:21.916Z,100303.20
2017-08-05T12:35:55.360Z,100309.73
2017-08-05T12:38:27.675Z,100308.55
2017-08-05T12:41:01.312Z,100302.11
2017-08-05T12:43:33.078Z,100291.19
2017-08-05T12:46:07.598Z,100297.02
2017-08-05T12:48:39.099Z,100303.69
2017-08-05T12:51:12.790Z,100298.89
2017-08-05T12:53:46.020Z,100290.09
2017-08-05T12:56:36.435Z,100285.51
2017-08-05T12:59:15.057Z,100271.45
2017-08-05T13:01:46.506Z,100273.24
2017-08-05T13:04:22.489Z,100272.08
2017-08-05T13:06:57.459Z,100257.16
2017-08-05T13:09:32.482Z,100255.96
2017-08-05T13:12:04.842Z,100251.25
2017-08-05T13:14:39.064Z,100240.16
2017-08-05T13:17:15.185Z,100239.24
2017-08-05T13:19:48.771Z,100250.03
2017-08-05T13:22:22.841Z,100247.60
2017-08-05T13:24:56.458Z,100283.98
2017-08-05T13:27:32.482Z,100288.00
2017-08-05T13:30:10.465Z,100302.69
2017-08-05T13:32:44.864Z,100309.20
2017-08-05T13:35:18.681Z,100307.72
2017-08-05T13:37:55.161Z,100301.98
2017-08-05T13:40:34.506Z,100287.19
2017-08-05T13:43:12.231Z,100280.58
2017-08-05T13:45:46.627Z,100289.41
2017-08-05T13:48:18.466Z,100294.69
2017-08-05T13:50:50.919Z,100291.56
2017-08-05T13:53:23.477Z,100291.06
2017-08-05T13:55:54.621Z,100292.17
2017-08-05T13:58:30.396Z,100292.67
2017-08-05T14:01:07.322Z,100294.28
2017-08-05T14:03:41.305Z,100289.60
2017-08-05T14:06:18.715Z,100282.53
2017-08-05T14:08:54.484Z,100290.09
2017-08-05T14:11:26.925Z,100292.36
2017-08-05T14:14:00.379Z,100289.48
2017-08-05T14:16:40.332Z,100298.53
2017-08-05T14:19:15.619Z,100307.02
2017-08-05T14:21:46.977Z,100300.50
2017-08-05T14:24:18.096Z,100298.81
2017-08-05T14:26:50.212Z,100302.92
2017-08-05T14:29:24.271Z,100304.75
2017-08-05T14:31:56.072Z,100305.19
2017-08-05T14:34:27.457Z,100315.82
2017-08-05T14:37:00.822Z,100313.82
2017-08-05T14:39:35.187Z,100313.90
2017-08-05T14:42:14.461Z,100302.88
2017-08-05T14:44:46.473Z,100309.66
2017-08-05T14:47:18.617Z,100305.56
2017-08-05T14:49:50.791Z,100313.05
2017-08-05T14:52:25.409Z,100321.91
2017-08-05T14:55:36.257Z,100325.45
2017-08-05T14:58:15.149Z,100305.56
2017-08-05T15:00:49.052Z,100295.47
2017-08-05T15:03:22.025Z,100307.58
2017-08-05T15:05:55.587Z,100301.97
2017-08-05T15:08:30.387Z,100321.49
2017-08-05T15:11:06.333Z,100311.61
2017-08-05T15:13:41.757Z,100326.39
2017-08-05T15:16:15.147Z,100322.75
2017-08-05T15:18:49.250Z,100323.12
2017-08-05T15:21:21.565Z,100338.91
2017-08-05T15:23:57.733Z,100336.31
2017-08-05T15:26:31.664Z,100344.61
2017-08-05T15:29:09.735Z,100335.10
2017-08-05T15:31:44.522Z,100346.55
2017-08-05T15:34:20.494Z,100355.09
2017-08-05T15:36:54.339Z,100361.42
2017-08-05T15:39:28.068Z,100360.55
2017-08-05T15:42:04.485Z,100356.41
2017-08-05T15:44:36.053Z,100363.08
2017-08-05T15:47:12.007Z,100361.11
2017-08-05T15:49:44.219Z,100361.09
2017-08-05T15:52:24.143Z,100358.70
2017-08-05T15:55:01.760Z,100362.63
2017-08-05T15:57:36.042Z,100369.59
2017-08-05T16:00:18.526Z,100381.58
2017-08-05T16:02:51.879Z,100385.96
2017-08-05T16:05:26.636Z,100395.73
2017-08-05T16:08:02.914Z,100414.98
2017-08-05T16:10:34.904Z,100417.63
2017-08-05T16:13:08.079Z,100412.48
2017-08-05T16:15:39.895Z,100413.73
2017-08-05T16:18:11.003Z,100423.61
2017-08-05T16:20:42.040Z,100416.72
2017-08-05T16:23:13.323Z,100434.48
2017-08-05T16:25:44.760Z,100439.07
2017-08-05T16:28:16.855Z,100434.60
2017-08-05T16:30:50.045Z,100453.91
2017-08-05T16:33:25.140Z,100460.34
2017-08-05T16:35:59.345Z,100457.84
2017-08-05T16:38:30.372Z,100454.49
2017-08-05T16:41:03.987Z,100452.88
2017-08-05T16:43:35.414Z,100464.53
2017-08-05T16:46:08.427Z,100474.11
2017-08-05T16:48:40.151Z,100483.61
2017-08-05T16:51:12.657Z,100469.57
2017-08-05T16:53:44.659Z,100490.35
2017-08-05T16:56:18.929Z,100494.92
2017-08-05T16:58:52.491Z,100493.86
2017-08-05T17:01:23.790Z,100497.52
2017-08-05T17:03:58.829Z,100504.42
2017-08-05T17:06:30.462Z,100491.75
2017-08-05T17:09:03.061Z,100484.96
2017-08-05T17:11:34.471Z,100489.67
2017-08-05T17:14:08.379Z,100489.44
2017-08-05T17:16:41.403Z,100499.77
2017-08-05T17:19:14.413Z,100503.87
2017-08-05T17:21:46.448Z,100506.05
2017-08-05T17:24:18.689Z,100510.50
2017-08-05T17:26:50.627Z,100498.00
2017-08-05T17:29:22.165Z,100506.91
2017-08-05T17:31:55.629Z,100508.17
2017-08-05T17:34:28.053Z,100523.72
2017-08-05T17:37:00.579Z,100527.30
2017-08-05T17:39:31.984Z,100538.83
2017-08-05T17:42:06.412Z,100533.13
2017-08-05T17:44:38.785Z,100545.28
2017-08-05T17:47:10.441Z,100535.87
2017-08-05T17:49:41.858Z,100543.52
2017-08-05T17:52:12.904Z,100547.50
2017-08-05T17:54:44.208Z,100548.83
2017-08-05T17:57:16.887Z,100546.28
2017-08-05T17:59:47.967Z,100555.83
2017-08-05T18:02:20.992Z,100547.78
2017-08-05T18:04:54.091Z,100547.12
2017-08-05T18:07:25.414Z,100552.00
2017-08-05T18:09:57.549Z,100564.78
2017-08-05T18:12:29.486Z,100562.94
2017-08-05T18:15:01.202Z,100564.12
2017-08-05T18:17:36.351Z,100568.99
2017-08-05T18:20:14.566Z,100567.51
2017-08-05T18:22:49.769Z,100574.51
2017-08-05T18:25:44.454Z,100572.47
2017-08-05T18:31:50.230Z,100584.12
2017-08-05T18:34:21.865Z,100592.57
2017-08-05T18:36:53.735Z,100595.39
2017-08-05T18:39:24.978Z,100597.09
2017-08-05T18:41:56.075Z,100604.99
2017-08-05T18:44:27.503Z,100600.54
2017-08-05T18:46:58.790Z,100612.94
2017-08-05T18:49:30.960Z,100630.61
2017-08-05T18:52:03.977Z,100617.14
2017-08-05T18:54:35.060Z,100620.48
2017-08-05T18:57:07.191Z,100630.70
2017-08-05T18:59:38.324Z,100624.80
2017-08-05T19:02:09.542Z,100640.47
2017-08-05T19:04:42.032Z,100643.96
2017-08-05T19:07:13.220Z,100648.03
2017-08-05T19:09:44.400Z,100660.34
2017-08-05T19:12:16.092Z,100659.78
2017-08-05T19:14:48.018Z,100669.98
2017-08-05T19:17:19.551Z,100679.67
2017-08-05T19:19:52.179Z,100670.39
2017-08-05T19:22:24.357Z,100677.13
2017-08-05T19:24:56.152Z,100682.06
2017-08-05T19:27:27.389Z,100683.66
2017-08-05T19:29:59.860Z,100687.03
2017-08-05T19:32:31.021Z,100686.83
2017-08-05T19:35:02.417Z,100688.18
2017-08-05T19:37:35.124Z,100695.42
2017-08-05T19:40:06.822Z,100688.67
2017-08-05T19:42:38.571Z,100695.30
2017-08-05T19:45:10.289Z,100698.52
2017-08-05T19:47:42.051Z,100695.38
2017-08-05T19:50:13.215Z,100702.80
2017-08-05T19:52:45.041Z,100713.99
2017-08-05T19:55:17.917Z,100712.38
2017-08-05T19:57:50.896Z,100710.77
2017-08-05T20:00:23.317Z,100719.28
2017-08-05T20:02:54.972Z,100719.80
2017-08-05T20:05:26.479Z,100710.66
2017-08-05T20:07:57.788Z,100715.58
2017-08-05T20:10:28.866Z,100714.13
2017-08-05T20:13:00.757Z,100712.48
2017-08-05T20:15:32.957Z,100715.92
2017-08-05T20:18:05.924Z,100719.33
2017-08-05T20:20:37.712Z,100724.73
2017-08-05T20:23:08.754Z,100728.46
2017-08-05T20:25:41.116Z,100722.56
2017-08-05T20:28:12.953Z,100729.83
2017-08-05T20:30:44.799Z,100728.12
2017-08-05T20:33:15.912Z,100729.60
2017-08-05T20:35:47.269Z,100730.75
2017-08-05T20:38:18.841Z,100738.27
2017-08-05T20:40:50.261Z,100737.97
2017-08-05T20:43:22.240Z,100745.59
2017-08-05T20:45:53.712Z,100744.86
2017-08-05T20:48:24.791Z,100747.62
2017-08-05T20:50:56.400Z,100750.23
2017-08-05T20:53:28.105Z,100747.83
2017-08-05T20:55:59.328Z,100744.10
2017-08-05T20:58:30.717Z,100744.89
2017-08-05T21:01:02.107Z,100743.54
2017-08-05T21:03:33.613Z,100750.58
2017-08-05T21:06:06.663Z,100758.63
2017-08-05T21:08:39.648Z,100775.66
2017-08-05T21:11:11.240Z,100770.75
2017-08-05T21:13:42.675Z,100777.42
2017-08-05T21:16:13.869Z,100776.92
2017-08-05T21:18:45.542Z,100781.00
2017-08-05T21:21:16.711Z,100785.86
2017-08-05T21:23:48.983Z,100782.47
2017-08-05T21:26:20.158Z,100786.92
2017-08-05T21:28:51.454Z,100789.50
2017-08-05T21:31:22.807Z,100794.66
2017-08-05T21:33:54.699Z,100801.53
2017-08-05T21:36:25.921Z,100805.27
2017-08-05T21:38:58.469Z,100792.62
2017-08-05T21:41:29.585Z,100793.62
2017-08-05T21:44:00.952Z,100795.77
2017-08-05T21:46:32.536Z,100805.28
2017-08-05T21:49:03.641Z,100800.15
2017-08-05T21:51:35.661Z,100795.84
2017-08-05T21:54:08.978Z,100799.72
2017-08-05T21:56:40.140Z,100808.64
2017-08-05T21:59:11.599Z,100815.79
2017-08-05T22:01:43.521Z,100811.98
2017-08-05T22:04:14.872Z,100818.69
2017-08-05T22:06:46.738Z,100819.58
2017-08-05T22:09:17.918Z,100822.93
2017-08-05T22:11:49.611Z,100812.97
2017-08-05T22:14:20.718Z,100808.28
2017-08-05T22:16:52.347Z,100818.85
2017-08-05T22:19:24.716Z,100823.48
2017-08-05T22:21:56.122Z,100824.95
2017-08-05T22:24:27.471Z,100816.61
2017-08-05T22:26:59.715Z,100824.02
2017-08-05T22:29:31.476Z,100821.64
2017-08-05T22:32:03.401Z,100821.38
2017-08-05T22:34:35.986Z,100826.54
2017-08-05T22:37:07.103Z,100828.75
2017-08-05T22:39:38.729Z,100833.49
2017-08-05T22:42:10.849Z,100834.70
2017-08-05T22:44:42.035Z,100839.43
2017-08-05T22:47:13.651Z,100835.00
2017-08-05T22:49:45.431Z,100841.30
2017-08-05T22:52:18.098Z,100837.14
2017-08-05T22:54:49.274Z,100836.45
2017-08-05T22:57:20.428Z,100836.22
2017-08-05T22:59:52.242Z,100834.69
2017-08-05T23:02:24.447Z,100833.88
2017-08-05T23:04:55.575Z,100837.17
2017-08-05T23:07:26.936Z,100840.64
2017-08-05T23:09:58.033Z,100836.21
2017-08-05T23:12:29.578Z,100844.83
2017-08-05T23:15:01.146Z,100845.64
2017-08-05T23:17:32.547Z,100838.97
2017-08-05T23:20:07.217Z,100843.08
2017-08-05T23:22:40.325Z,100844.02
2017-08-05T23:25:13.961Z,100845.12
2017-08-05T23:27:46.362Z,100846.78
2017-08-05T23:30:18.133Z,100852.30
2017-08-05T23:32:49.774Z,100849.54
2017-08-05T23:35:21.492Z,100852.92
2017-08-05T23:37:53.085Z,100855.86
2017-08-05T23:40:24.949Z,100859.01
2017-08-05T23:42:57.317Z,100859.25
2017-08-05T23:45:35.645Z,100858.62
2017-08-05T23:48:10.259Z,100863.77
2017-08-05T23:50:44.327Z,100864.55
2017-08-05T23:53:17.891Z,100877.92
2017-08-05T23:55:49.340Z,100884.29
2017-08-05T23:58:20.774Z,100892.28
